createdAt,value
2022-09-01T00:00:18.111Z,144.00
2022-09-01T00:01:18.128Z,145.30
2022-09-01T00:02:18.160Z,149.30
2022-09-01T00:03:18.119Z,133.60
2022-09-01T00:04:18.128Z,141.10
2022-09-01T00:05:18.065Z,144.50
2022-09-01T00:06:18.060Z,146.30
2022-09-01T00:07:18.038Z,153.20
2022-09-01T00:08:18.230Z,155.50
2022-09-01T00:09:18.025Z,156.10
2022-09-01T00:10:18.022Z,162.70
2022-09-01T00:11:18.001Z,165.30
2022-09-01T00:12:17.972Z,172.30
2022-09-01T00:13:18.004Z,165.70
2022-09-01T00:14:30.598Z,170.90
2022-09-01T00:15:18.944Z,171.80
2022-09-01T00:16:17.962Z,171.00
2022-09-01T00:17:17.919Z,171.80
2022-09-01T00:18:18.087Z,166.90
2022-09-01T00:19:17.915Z,174.70
2022-09-01T00:20:20.433Z,173.10
2022-09-01T00:21:17.880Z,176.50
2022-09-01T00:22:17.875Z,176.90
2022-09-01T00:23:17.905Z,186.70
2022-09-01T00:24:17.855Z,183.80
2022-09-01T00:25:17.859Z,200.10
2022-09-01T00:26:17.822Z,202.60
2022-09-01T00:27:17.821Z,212.30
2022-09-01T00:28:17.906Z,231.40
2022-09-01T00:29:17.805Z,223.80
2022-09-01T00:30:17.779Z,252.70
2022-09-01T00:31:17.838Z,250.20
2022-09-01T00:32:17.769Z,257.70
2022-09-01T00:33:17.784Z,251.90
2022-09-01T00:34:17.731Z,252.50
2022-09-01T00:35:17.720Z,252.00
2022-09-01T00:36:17.712Z,248.20
2022-09-01T00:37:17.699Z,248.60
2022-09-01T00:38:17.789Z,254.40
2022-09-01T00:39:17.693Z,252.10
2022-09-01T00:40:17.718Z,249.10
2022-09-01T00:41:17.662Z,246.70
2022-09-01T00:42:17.664Z,245.60
2022-09-01T00:43:17.678Z,247.40
2022-09-01T00:44:17.636Z,232.80
2022-09-01T00:45:17.623Z,236.00
2022-09-01T00:46:18.382Z,209.40
2022-09-01T00:47:17.587Z,228.30
2022-09-01T00:48:17.599Z,225.20
2022-09-01T00:49:17.558Z,227.00
2022-09-01T00:50:17.556Z,214.40
2022-09-01T00:51:17.555Z,208.10
2022-09-01T00:52:17.537Z,224.10
2022-09-01T00:53:17.555Z,224.60
2022-09-01T00:54:17.515Z,230.80
2022-09-01T00:55:17.530Z,250.60
2022-09-01T00:56:17.495Z,245.30
2022-09-01T00:57:17.485Z,241.50
2022-09-01T00:58:19.478Z,250.80
2022-09-01T00:59:17.463Z,246.20
2022-09-01T01:00:17.453Z,247.00
2022-09-01T01:01:17.470Z,250.10
2022-09-01T01:02:17.461Z,243.20
2022-09-01T01:03:17.439Z,261.30
2022-09-01T01:04:17.398Z,246.30
2022-09-01T01:05:17.411Z,251.30
2022-09-01T01:06:17.375Z,244.50
2022-09-01T01:07:17.383Z,239.60
2022-09-01T01:08:17.405Z,233.60
2022-09-01T01:09:17.366Z,233.40
2022-09-01T01:10:17.356Z,238.70
2022-09-01T01:11:17.325Z,223.60
2022-09-01T01:12:17.316Z,234.00
2022-09-01T01:13:17.340Z,224.70
2022-09-01T01:14:17.297Z,225.20
2022-09-01T01:15:17.286Z,234.30
2022-09-01T01:16:17.301Z,228.30
2022-09-01T01:17:17.261Z,234.10
2022-09-01T01:18:23.025Z,230.40
2022-09-01T01:19:18.241Z,232.30
2022-09-01T01:20:17.213Z,228.00
2022-09-01T01:21:17.213Z,236.10
2022-09-01T01:22:17.187Z,226.90
2022-09-01T01:23:17.177Z,238.40
2022-09-01T01:24:17.200Z,230.40
2022-09-01T01:25:17.178Z,218.70
2022-09-01T01:26:17.160Z,227.20
2022-09-01T01:27:17.137Z,214.00
2022-09-01T01:28:17.177Z,212.90
2022-09-01T01:29:17.170Z,201.10
2022-09-01T01:30:17.109Z,198.40
2022-09-01T01:31:17.138Z,187.10
2022-09-01T01:32:17.097Z,186.20
2022-09-01T01:33:17.124Z,179.80
2022-09-01T01:34:17.073Z,173.90
2022-09-01T01:35:17.070Z,167.70
2022-09-01T01:36:17.027Z,154.10
2022-09-01T01:37:17.038Z,162.60
2022-09-01T01:38:17.064Z,153.70
2022-09-01T01:39:17.026Z,158.10
2022-09-01T01:40:17.053Z,149.10
2022-09-01T01:41:17.005Z,163.50
2022-09-01T01:42:17.004Z,146.80
2022-09-01T01:43:17.006Z,163.20
2022-09-01T01:44:16.964Z,155.20
2022-09-01T01:45:16.961Z,137.40
2022-09-01T01:46:16.958Z,153.20
2022-09-01T01:47:16.924Z,164.60
2022-09-01T01:48:17.004Z,165.40
2022-09-01T01:49:16.901Z,155.90
2022-09-01T01:50:16.905Z,174.00
2022-09-01T01:51:16.882Z,168.60
2022-09-01T01:52:16.853Z,172.40
2022-09-01T01:53:16.882Z,174.00
2022-09-01T01:54:17.837Z,170.30
2022-09-01T01:55:16.842Z,168.50
2022-09-01T01:56:16.808Z,170.30
2022-09-01T01:57:16.796Z,188.10
2022-09-01T01:58:16.825Z,185.90
2022-09-01T01:59:16.772Z,188.70
2022-09-01T02:00:16.766Z,196.60
2022-09-01T02:01:16.836Z,198.70
2022-09-01T02:02:16.827Z,200.30
2022-09-01T02:03:16.784Z,197.70
2022-09-01T02:04:16.736Z,195.10
2022-09-01T02:05:16.721Z,198.10
2022-09-01T02:06:16.710Z,197.30
2022-09-01T02:07:16.720Z,202.60
2022-09-01T02:08:16.746Z,193.30
2022-09-01T02:09:16.678Z,174.80
2022-09-01T02:10:16.664Z,178.50
2022-09-01T02:11:16.668Z,207.80
2022-09-01T02:12:16.629Z,217.60
2022-09-01T02:13:16.668Z,199.40
2022-09-01T02:14:16.612Z,213.90
2022-09-01T02:15:16.614Z,211.50
2022-09-01T02:16:16.636Z,208.80
2022-09-01T02:17:16.579Z,178.70
2022-09-01T02:18:16.838Z,188.30
2022-09-01T02:19:16.565Z,206.20
2022-09-01T02:20:16.559Z,205.30
2022-09-01T02:21:18.545Z,215.10
2022-09-01T02:22:16.507Z,198.70
2022-09-01T02:23:16.566Z,189.40
2022-09-01T02:24:16.487Z,176.10
2022-09-01T02:25:16.495Z,188.70
2022-09-01T02:26:17.748Z,180.40
2022-09-01T02:27:16.474Z,182.80
2022-09-01T02:28:16.544Z,172.50
2022-09-01T02:29:16.481Z,169.70
2022-09-01T02:30:16.451Z,161.60
2022-09-01T02:31:16.460Z,160.00
2022-09-01T02:32:16.413Z,150.80
2022-09-01T02:33:16.445Z,148.40
2022-09-01T02:34:16.369Z,152.90
2022-09-01T02:35:16.373Z,159.70
2022-09-01T02:36:16.357Z,159.90
2022-09-01T02:37:16.355Z,148.60
2022-09-01T02:38:16.458Z,160.70
2022-09-01T02:39:16.329Z,147.00
2022-09-01T02:40:16.426Z,147.40
2022-09-01T02:41:16.323Z,144.80
2022-09-01T02:42:16.303Z,153.90
2022-09-01T02:43:16.320Z,152.10
2022-09-01T02:44:16.279Z,153.90
2022-09-01T02:45:16.281Z,162.50
2022-09-01T02:46:16.345Z,162.70
2022-09-01T02:47:16.249Z,165.40
2022-09-01T02:48:16.349Z,170.50
2022-09-01T02:49:16.206Z,175.60
2022-09-01T02:50:16.206Z,168.10
2022-09-01T02:51:16.192Z,167.30
2022-09-01T02:52:16.201Z,161.10
2022-09-01T02:53:16.212Z,170.30
2022-09-01T02:54:16.173Z,165.80
2022-09-01T02:55:16.157Z,171.20
2022-09-01T02:56:16.158Z,169.20
2022-09-01T02:57:16.126Z,169.60
2022-09-01T02:58:16.208Z,174.30
2022-09-01T02:59:16.110Z,172.10
2022-09-01T03:00:16.100Z,183.40
2022-09-01T03:01:16.155Z,169.90
2022-09-01T03:02:16.077Z,177.90
2022-09-01T03:03:16.086Z,175.20
2022-09-01T03:04:16.060Z,195.50
2022-09-01T03:05:16.040Z,179.30
2022-09-01T03:06:16.033Z,185.00
2022-09-01T03:07:16.011Z,188.90
2022-09-01T03:08:16.091Z,170.40
2022-09-01T03:09:15.984Z,170.40
2022-09-01T03:10:15.975Z,178.10
2022-09-01T03:11:15.960Z,168.50
2022-09-01T03:12:15.947Z,166.00
2022-09-01T03:13:16.000Z,169.00
2022-09-01T03:14:15.936Z,175.50
2022-09-01T03:15:15.970Z,171.10
2022-09-01T03:16:15.952Z,178.10
2022-09-01T03:17:15.908Z,174.40
2022-09-01T03:18:15.960Z,182.50
2022-09-01T03:19:15.889Z,182.20
2022-09-01T03:20:15.874Z,188.00
2022-09-01T03:21:15.846Z,180.30
2022-09-01T03:22:15.853Z,184.70
2022-09-01T03:23:15.834Z,192.90
2022-09-01T03:24:15.854Z,204.30
2022-09-01T03:25:15.804Z,197.30
2022-09-01T03:26:15.822Z,199.90
2022-09-01T03:27:15.783Z,196.60
2022-09-01T03:28:15.869Z,184.10
2022-09-01T03:29:15.799Z,206.90
2022-09-01T03:30:15.777Z,175.80
2022-09-01T03:31:15.817Z,185.60
2022-09-01T03:32:15.787Z,188.00
2022-09-01T03:33:15.735Z,191.40
2022-09-01T03:34:15.761Z,182.90
2022-09-01T03:35:15.723Z,187.00
2022-09-01T03:36:15.705Z,186.00
2022-09-01T03:37:15.669Z,180.70
2022-09-01T03:38:15.679Z,187.50
2022-09-01T03:39:16.869Z,191.70
2022-09-01T03:40:15.726Z,191.70
2022-09-01T03:41:15.627Z,188.00
2022-09-01T03:42:15.634Z,199.30
2022-09-01T03:43:15.603Z,208.60
2022-09-01T03:44:15.641Z,213.70
2022-09-01T03:45:15.579Z,224.00
2022-09-01T03:46:15.624Z,229.20
2022-09-01T03:47:15.552Z,208.40
2022-09-01T03:48:15.545Z,227.10
2022-09-01T03:49:15.846Z,219.40
2022-09-01T03:50:15.538Z,216.90
2022-09-01T03:51:15.535Z,221.60
2022-09-01T03:52:15.514Z,224.60
2022-09-01T03:53:15.492Z,229.10
2022-09-01T03:54:15.539Z,236.20
2022-09-01T03:55:15.473Z,239.30
2022-09-01T03:56:15.472Z,245.60
2022-09-01T03:57:15.452Z,249.10
2022-09-01T03:58:15.457Z,240.00
2022-09-01T03:59:15.476Z,248.10
2022-09-01T04:00:15.417Z,241.90
2022-09-01T04:01:15.439Z,261.10
2022-09-01T04:02:15.490Z,241.60
2022-09-01T04:03:15.391Z,239.00
2022-09-01T04:04:15.423Z,256.50
2022-09-01T04:05:15.371Z,194.20
2022-09-01T04:06:15.367Z,204.60
2022-09-01T04:07:19.047Z,198.80
2022-09-01T04:08:15.333Z,220.10
2022-09-01T04:09:15.355Z,255.20
2022-09-01T04:10:15.329Z,254.60
2022-09-01T04:11:15.294Z,258.90
2022-09-01T04:12:15.307Z,259.20
2022-09-01T04:13:15.280Z,258.70
2022-09-01T04:14:15.318Z,244.70
2022-09-01T04:15:15.255Z,245.00
2022-09-01T04:16:15.349Z,221.10
2022-09-01T04:17:15.223Z,253.80
2022-09-01T04:18:15.221Z,223.60
2022-09-01T04:19:15.281Z,199.10
2022-09-01T04:20:15.203Z,225.90
2022-09-01T04:21:16.186Z,212.30
2022-09-01T04:22:15.170Z,205.50
2022-09-01T04:23:15.148Z,207.20
2022-09-01T04:24:15.139Z,204.60
2022-09-01T04:25:15.171Z,188.90
2022-09-01T04:26:15.143Z,215.20
2022-09-01T04:27:15.128Z,209.90
2022-09-01T04:28:15.113Z,218.00
2022-09-01T04:29:15.095Z,223.10
2022-09-01T04:30:15.112Z,206.70
2022-09-01T04:31:15.148Z,190.90
2022-09-01T04:32:15.079Z,211.60
2022-09-01T04:33:15.061Z,208.40
2022-09-01T04:34:15.051Z,179.10
2022-09-01T04:35:15.085Z,193.80
2022-09-01T04:36:15.026Z,195.10
2022-09-01T04:37:15.154Z,182.20
2022-09-01T04:38:14.996Z,181.00
2022-09-01T04:39:14.993Z,187.80
2022-09-01T04:40:15.099Z,192.80
2022-09-01T04:41:14.981Z,199.40
2022-09-01T04:42:14.955Z,183.80
2022-09-01T04:43:14.918Z,171.90
2022-09-01T04:44:14.932Z,168.70
2022-09-01T04:45:19.954Z,174.70
2022-09-01T04:46:15.945Z,162.00
2022-09-01T04:47:14.886Z,153.70
2022-09-01T04:48:14.902Z,152.60
2022-09-01T04:49:14.895Z,144.60
2022-09-01T04:50:15.174Z,139.00
2022-09-01T04:51:14.865Z,125.90
2022-09-01T04:52:14.866Z,132.50
2022-09-01T04:53:14.832Z,132.60
2022-09-01T04:54:14.838Z,142.20
2022-09-01T04:55:14.841Z,139.70
2022-09-01T04:56:14.806Z,142.90
2022-09-01T04:57:14.764Z,147.30
2022-09-01T04:58:14.758Z,158.70
2022-09-01T04:59:14.745Z,170.60
2022-09-01T05:00:14.779Z,185.20
2022-09-01T05:01:14.762Z,202.70
2022-09-01T05:02:14.821Z,228.80
2022-09-01T05:03:14.723Z,277.20
2022-09-01T05:04:14.735Z,273.10
2022-09-01T05:05:14.738Z,292.50
2022-09-01T05:06:14.681Z,316.20
2022-09-01T05:07:14.674Z,320.10
2022-09-01T05:08:14.681Z,346.30
2022-09-01T05:09:15.644Z,354.60
2022-09-01T05:10:14.640Z,357.80
2022-09-01T05:11:14.632Z,372.30
2022-09-01T05:12:15.784Z,369.60
2022-09-01T05:13:14.596Z,371.40
2022-09-01T05:14:14.604Z,380.00
2022-09-01T05:15:14.626Z,382.80
2022-09-01T05:16:14.620Z,372.20
2022-09-01T05:17:14.561Z,364.90
2022-09-01T05:18:14.571Z,347.30
2022-09-01T05:19:14.543Z,340.90
2022-09-01T05:20:14.560Z,309.00
2022-09-01T05:21:14.518Z,284.10
2022-09-01T05:22:14.500Z,237.70
2022-09-01T05:23:14.502Z,213.20
2022-09-01T05:24:14.460Z,190.10
2022-09-01T05:25:14.480Z,180.10
2022-09-01T05:26:14.471Z,146.20
2022-09-01T05:27:14.444Z,33.70
2022-09-01T05:28:14.429Z,37.80
2022-09-01T05:29:14.422Z,43.50
2022-09-01T05:30:14.445Z,50.10
2022-09-01T05:31:14.417Z,54.40
2022-09-01T05:32:14.405Z,57.50
2022-09-01T05:33:16.748Z,60.10
2022-09-01T05:34:14.361Z,52.70
2022-09-01T05:35:14.346Z,46.30
2022-09-01T05:36:14.384Z,39.60
2022-09-01T05:37:14.342Z,38.10
2022-09-01T05:38:14.332Z,130.30
2022-09-01T05:39:14.314Z,104.30
2022-09-01T05:40:14.331Z,98.70
2022-09-01T05:41:14.321Z,108.90
2022-09-01T05:42:14.292Z,99.60
2022-09-01T05:43:14.264Z,97.00
2022-09-01T05:44:14.257Z,94.50
2022-09-01T05:45:14.293Z,93.60
2022-09-01T05:46:14.263Z,85.70
2022-09-01T05:47:14.856Z,73.50
2022-09-01T05:48:15.211Z,53.40
2022-09-01T05:49:14.183Z,53.30
2022-09-01T05:50:14.798Z,57.80
2022-09-01T05:51:33.414Z,16.00
2022-09-01T05:52:15.163Z,21.40
2022-09-01T05:53:14.157Z,57.80
2022-09-01T05:54:14.133Z,63.80
2022-09-01T05:55:14.157Z,37.90
2022-09-01T05:56:14.115Z,67.80
2022-09-01T05:57:33.382Z,76.40
2022-09-01T05:58:15.099Z,30.10
2022-09-01T05:59:29.493Z,19.30
2022-09-01T06:00:15.117Z,108.20
2022-09-01T06:01:14.040Z,120.60
2022-09-01T06:02:14.180Z,112.00
2022-09-01T06:03:14.165Z,130.10
2022-09-01T06:04:14.032Z,12.30
2022-09-01T06:05:14.078Z,138.00
2022-09-01T06:06:14.004Z,96.50
2022-09-01T06:07:16.290Z,63.50
2022-09-01T06:08:13.977Z,143.60
2022-09-01T06:09:13.948Z,55.30
2022-09-01T06:10:13.933Z,132.30
2022-09-01T06:11:13.956Z,92.10
2022-09-01T06:12:13.935Z,15.40
2022-09-01T06:13:13.913Z,131.60
2022-09-01T06:14:13.921Z,111.50
2022-09-01T06:15:13.891Z,109.30
2022-09-01T06:16:13.982Z,99.00
2022-09-01T06:17:13.871Z,40.90
2022-09-01T06:18:13.887Z,53.90
2022-09-01T06:19:13.835Z,73.40
2022-09-01T06:20:13.840Z,61.50
2022-09-01T06:21:13.848Z,14.60
2022-09-01T06:22:13.855Z,23.70
2022-09-01T06:23:13.828Z,15.00
2022-09-01T06:24:13.805Z,29.00
2022-09-01T06:25:13.783Z,24.30
2022-09-01T06:26:13.814Z,32.90
2022-09-01T06:27:13.746Z,36.00
2022-09-01T06:28:13.760Z,29.30
2022-09-01T06:29:13.743Z,26.90
2022-09-01T06:30:13.741Z,22.40
2022-09-01T06:31:13.781Z,23.50
2022-09-01T06:32:13.719Z,19.70
2022-09-01T06:33:13.682Z,23.90
2022-09-01T06:34:13.676Z,16.90
2022-09-01T06:35:13.662Z,15.50
2022-09-01T06:36:13.717Z,12.20
2022-09-01T06:37:13.654Z,10.90
2022-09-01T06:38:13.623Z,15.00
2022-09-01T06:39:13.627Z,15.50
2022-09-01T06:40:13.656Z,10.10
2022-09-01T06:41:13.645Z,9.60
2022-09-01T06:42:13.589Z,11.70
2022-09-01T06:43:13.567Z,11.30
2022-09-01T06:44:14.661Z,12.50
2022-09-01T06:45:13.552Z,11.70
2022-09-01T06:46:13.621Z,9.70
2022-09-01T06:47:13.526Z,12.70
2022-09-01T06:48:13.549Z,13.90
2022-09-01T06:49:13.506Z,13.50
2022-09-01T06:50:13.643Z,12.50
2022-09-01T06:51:17.447Z,10.90
2022-09-01T06:52:14.480Z,11.30
2022-09-01T06:54:14.671Z,10.50
2022-09-01T06:55:13.462Z,10.40
2022-09-01T06:56:13.469Z,10.70
2022-09-01T06:58:14.411Z,11.00
2022-09-01T06:59:13.503Z,11.50
2022-09-01T07:00:13.428Z,12.50
2022-09-01T07:01:14.256Z,12.60
2022-09-01T07:02:17.309Z,12.70
2022-09-01T07:03:13.393Z,13.20
2022-09-01T07:04:13.504Z,10.20
2022-09-01T07:05:59.707Z,11.30
2022-09-01T07:06:59.079Z,12.00
2022-09-01T07:08:14.289Z,12.30
2022-09-01T07:09:21.553Z,12.50
2022-09-01T07:10:23.056Z,12.30
2022-09-01T07:12:07.558Z,12.90
2022-09-01T07:12:29.700Z,11.50
2022-09-01T07:13:14.243Z,12.90
2022-09-01T07:14:16.307Z,15.00
2022-09-01T07:16:32.466Z,14.50
2022-09-01T07:17:29.446Z,15.80
2022-09-01T07:18:14.183Z,12.50
2022-09-01T07:19:13.175Z,10.80
2022-09-01T07:20:28.479Z,10.40
2022-09-01T07:23:14.104Z,10.40
2022-09-01T07:24:13.124Z,10.40
2022-09-01T07:25:13.536Z,10.50
2022-09-01T07:26:24.637Z,10.70
2022-09-01T07:27:14.075Z,10.40
2022-09-01T07:28:15.663Z,11.50
2022-09-01T07:29:13.050Z,11.90
2022-09-01T07:30:13.088Z,12.70
2022-09-01T07:35:14.015Z,7.90
2022-09-01T07:36:29.471Z,7.20
2022-09-01T07:42:56.480Z,10.40
2022-09-01T07:43:13.917Z,10.30
2022-09-01T07:44:12.880Z,10.20
2022-09-01T07:45:28.840Z,9.10
2022-09-01T07:47:52.297Z,10.40
2022-09-01T07:48:35.440Z,12.30
2022-09-01T07:49:30.306Z,13.80
2022-09-01T07:50:37.550Z,11.30
2022-09-01T07:52:13.805Z,9.00
2022-09-01T07:53:12.916Z,9.10
2022-09-01T07:54:12.771Z,9.90
2022-09-01T07:55:12.763Z,10.00
2022-09-01T07:56:12.769Z,10.20
2022-09-01T07:57:12.731Z,9.90
2022-09-01T07:58:12.720Z,10.40
2022-09-01T07:59:15.191Z,11.20
2022-09-01T08:00:12.725Z,11.50
2022-09-01T08:01:12.737Z,11.10
2022-09-01T08:02:12.810Z,10.80
2022-09-01T08:03:12.820Z,11.20
2022-09-01T08:04:12.687Z,12.10
2022-09-01T08:05:12.670Z,11.50
2022-09-01T08:06:12.666Z,11.30
2022-09-01T08:07:16.111Z,11.30
2022-09-01T08:08:21.061Z,10.70
2022-09-01T08:09:27.336Z,10.30
2022-09-01T08:10:20.186Z,10.60
2022-09-01T08:11:13.621Z,10.90
2022-09-01T08:12:12.602Z,10.90
2022-09-01T08:13:15.358Z,11.80
2022-09-01T08:14:12.567Z,11.30
2022-09-01T08:15:13.027Z,12.60
2022-09-01T08:16:19.738Z,13.00
2022-09-01T08:17:17.739Z,11.80
2022-09-01T08:18:14.841Z,11.90
2022-09-01T08:19:19.633Z,11.40
2022-09-01T08:20:14.132Z,10.50
2022-09-01T08:21:12.523Z,10.20
2022-09-01T08:22:12.445Z,9.90
2022-09-01T08:23:12.458Z,10.00
2022-09-01T08:24:12.455Z,10.20
2022-09-01T08:25:12.453Z,10.00
2022-09-01T08:26:12.447Z,9.80
2022-09-01T08:27:12.442Z,9.80
2022-09-01T08:28:12.499Z,10.60
2022-09-01T08:29:12.410Z,10.40
2022-09-01T08:30:12.368Z,10.20
2022-09-01T08:31:12.451Z,8.50
2022-09-01T08:32:12.342Z,9.20
2022-09-01T08:33:12.340Z,9.30
2022-09-01T08:34:12.333Z,9.50
2022-09-01T08:35:12.337Z,9.80
2022-09-01T08:36:12.376Z,9.20
2022-09-01T08:37:12.309Z,8.60
2022-09-01T08:38:12.322Z,8.60
2022-09-01T08:39:12.287Z,9.50
2022-09-01T08:40:12.363Z,9.60
2022-09-01T08:41:12.294Z,10.00
2022-09-01T08:42:12.267Z,9.90
2022-09-01T08:43:15.436Z,9.10
2022-09-01T08:44:12.224Z,8.90
2022-09-01T08:45:12.228Z,9.60
2022-09-01T08:46:12.289Z,9.00
2022-09-01T08:47:13.653Z,8.60
2022-09-01T08:49:29.216Z,8.40
2022-09-01T08:50:13.169Z,8.60
2022-09-01T08:51:17.039Z,8.80
2022-09-01T08:52:13.138Z,8.80
2022-09-01T08:53:12.144Z,8.70
2022-09-01T08:54:12.123Z,9.00
2022-09-01T08:55:12.216Z,9.60
2022-09-01T08:56:12.135Z,9.80
2022-09-01T08:57:12.076Z,9.90
2022-09-01T08:58:12.075Z,10.60
2022-09-01T08:59:12.099Z,11.00
2022-09-01T09:00:12.713Z,11.70
2022-09-01T09:01:12.140Z,11.60
2022-09-01T09:02:12.161Z,11.80
2022-09-01T09:03:12.168Z,11.60
2022-09-01T09:04:12.019Z,12.10
2022-09-01T09:05:19.059Z,11.20
2022-09-01T09:06:13.025Z,10.80
2022-09-01T09:07:13.543Z,10.20
2022-09-01T09:08:11.956Z,10.10
2022-09-01T09:09:11.953Z,10.10
2022-09-01T09:10:12.111Z,10.30
2022-09-01T09:11:12.964Z,10.30
2022-09-01T09:12:12.345Z,10.40
2022-09-01T09:13:11.929Z,10.90
2022-09-01T09:14:11.900Z,10.70
2022-09-01T09:15:11.907Z,10.80
2022-09-01T09:16:11.977Z,11.30
2022-09-01T09:17:11.874Z,11.70
2022-09-01T09:18:27.105Z,11.70
2022-09-01T09:19:12.845Z,11.50
2022-09-01T09:20:11.845Z,11.40
2022-09-01T09:21:12.076Z,11.70
2022-09-01T09:22:11.829Z,11.80
2022-09-01T09:23:11.799Z,12.30
2022-09-01T09:24:11.779Z,12.80
2022-09-01T09:25:11.779Z,12.90
2022-09-01T09:26:16.663Z,12.10
2022-09-01T09:27:13.050Z,11.80
2022-09-01T09:28:11.770Z,11.40
2022-09-01T09:29:11.748Z,11.10
2022-09-01T09:30:12.021Z,10.50
2022-09-01T09:31:11.782Z,9.90
2022-09-01T09:32:44.359Z,9.80
2022-09-01T09:33:49.869Z,9.50
2022-09-01T09:34:13.181Z,9.30
2022-09-01T09:35:11.704Z,10.30
2022-09-01T09:36:11.713Z,10.00
2022-09-01T09:37:11.676Z,9.60
2022-09-01T09:38:11.652Z,9.50
2022-09-01T09:39:11.648Z,9.10
2022-09-01T09:40:11.632Z,8.90
2022-09-01T09:41:17.797Z,9.10
2022-09-01T09:42:13.218Z,9.50
2022-09-01T09:43:11.573Z,9.50
2022-09-01T09:44:11.635Z,8.90
2022-09-01T09:45:11.591Z,9.50
2022-09-01T09:46:23.422Z,9.70
2022-09-01T09:47:33.460Z,9.90
2022-09-01T09:48:12.531Z,10.10
2022-09-01T09:49:11.530Z,10.50
2022-09-01T09:50:11.526Z,11.60
2022-09-01T09:51:11.563Z,11.60
2022-09-01T09:52:11.493Z,11.90
2022-09-01T09:53:11.505Z,12.10
2022-09-01T09:54:11.508Z,12.60
2022-09-01T09:55:12.180Z,12.50
2022-09-01T09:56:11.464Z,12.00
2022-09-01T09:57:11.508Z,12.40
2022-09-01T09:58:11.446Z,12.20
2022-09-01T09:59:11.420Z,13.10
2022-09-01T10:00:11.433Z,12.90
2022-09-01T10:01:11.457Z,13.20
2022-09-01T10:02:11.424Z,13.20
2022-09-01T10:03:12.565Z,13.30
2022-09-01T10:04:11.490Z,13.10
2022-09-01T10:05:11.360Z,13.40
2022-09-01T10:06:11.331Z,13.00
2022-09-01T10:07:11.387Z,13.60
2022-09-01T10:08:12.361Z,13.80
2022-09-01T10:09:11.334Z,13.80
2022-09-01T10:10:11.347Z,13.80
2022-09-01T10:11:11.349Z,13.30
2022-09-01T10:12:11.300Z,11.50
2022-09-01T10:13:11.274Z,10.30
2022-09-01T10:14:13.774Z,11.10
2022-09-01T10:15:13.956Z,10.30
2022-09-01T10:16:11.416Z,9.80
2022-09-01T10:17:11.323Z,9.60
2022-09-01T10:18:20.736Z,10.00
2022-09-01T10:19:12.749Z,10.50
2022-09-01T10:20:11.380Z,10.60
2022-09-01T10:21:11.232Z,10.20
2022-09-01T10:22:11.171Z,10.00
2022-09-01T10:23:15.426Z,9.70
2022-09-01T10:24:21.174Z,9.70
2022-09-01T10:25:12.147Z,10.30
2022-09-01T10:26:11.188Z,9.90
2022-09-01T10:27:14.325Z,9.70
2022-09-01T10:28:11.111Z,10.00
2022-09-01T10:29:12.094Z,9.70
2022-09-01T10:30:12.603Z,10.90
2022-09-01T10:31:11.186Z,10.50
2022-09-01T10:32:31.443Z,10.10
2022-09-01T10:33:19.921Z,10.10
2022-09-01T10:34:12.041Z,10.20
2022-09-01T10:35:11.056Z,9.90
2022-09-01T10:36:11.055Z,10.50
2022-09-01T10:37:11.738Z,9.20
2022-09-01T10:38:12.168Z,9.50
2022-09-01T10:39:10.984Z,9.40
2022-09-01T10:40:11.071Z,10.10
2022-09-01T10:41:14.685Z,10.00
2022-09-01T10:42:13.141Z,9.50
2022-09-01T10:43:12.477Z,9.30
2022-09-01T10:44:10.937Z,8.80
2022-09-01T10:45:10.934Z,9.30
2022-09-01T10:46:15.604Z,9.50
2022-09-01T10:47:16.419Z,10.00
2022-09-01T10:48:13.272Z,10.40
2022-09-01T10:49:10.880Z,10.10
2022-09-01T10:50:11.239Z,9.50
2022-09-01T10:51:10.859Z,9.10
2022-09-01T10:52:14.099Z,8.70
2022-09-01T10:53:11.465Z,8.80
2022-09-01T10:54:10.847Z,8.50
2022-09-01T10:55:10.798Z,8.60
2022-09-01T10:56:23.395Z,9.40
2022-09-01T10:57:12.245Z,10.00
2022-09-01T10:59:31.216Z,9.70
2022-09-01T11:00:34.897Z,10.50
2022-09-01T11:01:13.339Z,11.10
2022-09-01T11:02:27.954Z,10.70
2022-09-01T11:04:11.770Z,11.20
2022-09-01T11:05:10.776Z,11.20
2022-09-01T11:06:12.890Z,11.10
2022-09-01T11:07:12.032Z,10.70
2022-09-01T11:08:17.742Z,9.10
2022-09-01T11:09:11.650Z,9.20
2022-09-01T11:10:11.856Z,9.30
2022-09-01T11:11:10.641Z,9.60
2022-09-01T11:12:10.652Z,9.20
2022-09-01T11:13:10.605Z,9.50
2022-09-01T11:14:10.619Z,9.30
2022-09-01T11:15:10.585Z,9.30
2022-09-01T11:16:10.621Z,8.40
2022-09-01T11:17:10.658Z,8.60
2022-09-01T11:18:10.577Z,8.60
2022-09-01T11:19:15.602Z,8.30
2022-09-01T11:20:11.535Z,8.60
2022-09-01T11:21:10.525Z,9.50
2022-09-01T11:22:11.383Z,9.10
2022-09-01T11:23:10.537Z,8.60
2022-09-01T11:24:10.491Z,8.70
2022-09-01T11:25:11.032Z,8.70
2022-09-01T11:26:25.750Z,8.60
2022-09-01T11:27:11.506Z,9.00
2022-09-01T11:28:10.438Z,9.10
2022-09-01T11:29:10.476Z,9.70
2022-09-01T11:30:10.441Z,9.60
2022-09-01T11:31:10.424Z,8.40
2022-09-01T11:32:10.476Z,8.80
2022-09-01T11:33:10.412Z,9.10
2022-09-01T11:34:10.418Z,9.60
2022-09-01T11:35:10.396Z,10.60
2022-09-01T11:36:10.399Z,11.50
2022-09-01T11:37:10.393Z,12.10
2022-09-01T11:38:10.339Z,12.90
2022-09-01T11:39:11.046Z,12.70
2022-09-01T11:40:10.431Z,12.80
2022-09-01T11:41:10.316Z,13.00
2022-09-01T11:42:10.330Z,12.90
2022-09-01T11:43:19.935Z,12.60
2022-09-01T11:44:11.317Z,12.10
2022-09-01T11:45:10.260Z,11.90
2022-09-01T11:46:11.512Z,11.10
2022-09-01T11:47:14.168Z,10.40
2022-09-01T11:48:10.246Z,10.70
2022-09-01T11:49:10.241Z,10.60
2022-09-01T11:50:10.215Z,10.20
2022-09-01T11:51:14.766Z,9.90
2022-09-01T11:52:10.205Z,9.60
2022-09-01T11:53:10.215Z,10.60
2022-09-01T11:54:10.172Z,10.10
2022-09-01T11:55:10.172Z,9.90
2022-09-01T11:56:10.164Z,10.10
2022-09-01T11:57:10.148Z,9.80
2022-09-01T11:58:13.425Z,9.90
2022-09-01T11:59:11.113Z,9.90
2022-09-01T12:00:10.094Z,9.50
2022-09-01T12:01:10.068Z,9.50
2022-09-01T12:02:10.180Z,9.30
2022-09-01T12:03:10.170Z,9.40
2022-09-01T12:04:10.076Z,9.00
2022-09-01T12:05:10.045Z,9.10
2022-09-01T12:06:10.031Z,9.30
2022-09-01T12:07:10.950Z,9.10
2022-09-01T12:08:10.048Z,9.70
2022-09-01T12:09:10.013Z,9.20
2022-09-01T12:10:09.991Z,9.20
2022-09-01T12:11:09.994Z,9.30
2022-09-01T12:12:09.976Z,9.50
2022-09-01T12:13:09.997Z,9.30
2022-09-01T12:14:11.538Z,8.90
2022-09-01T12:15:09.931Z,8.90
2022-09-01T12:16:18.693Z,9.20
2022-09-01T12:17:11.008Z,9.30
2022-09-01T12:18:09.932Z,9.80
2022-09-01T12:19:09.898Z,12.10
2022-09-01T12:20:09.899Z,9.80
2022-09-01T12:21:09.876Z,9.80
2022-09-01T12:22:09.865Z,8.40
2022-09-01T12:23:09.890Z,9.10
2022-09-01T12:24:09.858Z,8.80
2022-09-01T12:25:09.834Z,10.40
2022-09-01T12:26:09.820Z,11.10
2022-09-01T12:27:09.834Z,12.40
2022-09-01T12:28:11.144Z,12.70
2022-09-01T12:29:09.793Z,10.10
2022-09-01T12:30:09.766Z,9.80
2022-09-01T12:31:09.779Z,10.50
2022-09-01T12:32:09.810Z,9.60
2022-09-01T12:33:25.221Z,9.70
2022-09-01T12:34:10.737Z,8.90
2022-09-01T12:35:11.682Z,9.40
2022-09-01T12:36:09.714Z,9.90
2022-09-01T12:37:09.675Z,10.10
2022-09-01T12:38:09.762Z,10.00
2022-09-01T12:39:09.862Z,11.90
2022-09-01T12:40:09.692Z,11.70
2022-09-01T12:41:09.675Z,10.90
2022-09-01T12:42:09.655Z,11.50
2022-09-01T12:43:09.669Z,12.00
2022-09-01T12:44:09.637Z,11.30
2022-09-01T12:45:09.606Z,12.10
2022-09-01T12:46:09.649Z,11.60
2022-09-01T12:47:09.609Z,12.80
2022-09-01T12:48:09.613Z,12.40
2022-09-01T12:49:09.598Z,11.30
2022-09-01T12:50:09.570Z,9.80
2022-09-01T12:51:09.706Z,9.90
2022-09-01T12:52:09.537Z,10.90
2022-09-01T12:53:09.585Z,10.10
2022-09-01T12:54:09.692Z,9.00
2022-09-01T12:55:09.514Z,8.40
2022-09-01T12:56:09.499Z,7.70
2022-09-01T12:57:09.488Z,8.20
2022-09-01T12:58:09.508Z,9.00
2022-09-01T12:59:14.319Z,8.90
2022-09-01T13:00:10.446Z,9.20
2022-09-01T13:01:16.498Z,8.10
2022-09-01T13:02:10.716Z,8.70
2022-09-01T13:03:09.514Z,10.20
2022-09-01T13:04:09.412Z,10.60
2022-09-01T13:05:09.403Z,11.40
2022-09-01T13:06:09.395Z,11.40